Time;durP1;ratioP1;P1;durP2;ratioP2;P2;SDS_P1;SDS_P2;PMS_P1;PMS_P2;Temp;Humidity;BMP_temperature;BMP_pressure;BME280_temperature;BME280_humidity;BME280_pressure;Samples;Min_cycle;Max_cycle;Signal;HPM_P1;HPM_P2
2022/06/18 00:00:19;;;;;;;11.57;5.40;;;20.70;99.90;;;;;;5093510;28;20044;-76
2022/06/18 00:02:45;;;;;;;6.50;4.27;;;20.60;99.90;;;;;;5092853;28;20507;-76
2022/06/18 00:05:14;;;;;;;9.33;4.70;;;20.60;99.90;;;;;;5093516;28;20048;-76
2022/06/18 00:07:45;;;;;;;8.83;6.03;;;20.50;99.90;;;;;;5093452;28;20055;-76
2022/06/18 00:10:17;;;;;;;9.70;5.47;;;20.50;99.90;;;;;;5093526;28;20137;-76
2022/06/18 00:15:31;;;;;;;14.45;6.30;;;20.40;99.90;;;;;;5075792;28;20394;-76
2022/06/18 00:17:57;;;;;;;12.63;5.87;;;20.40;99.90;;;;;;5093063;28;20040;-76
2022/06/18 00:20:26;;;;;;;11.30;7.30;;;20.40;99.90;;;;;;5075483;28;20055;-76
2022/06/18 00:22:55;;;;;;;9.93;6.37;;;20.40;99.90;;;;;;5092420;28;20488;-77
2022/06/18 00:25:26;;;;;;;8.30;6.30;;;20.40;99.90;;;;;;5093379;28;20052;-76
2022/06/18 00:27:52;;;;;;;12.93;7.27;;;20.40;99.90;;;;;;5092942;28;20044;-77
2022/06/18 00:30:21;;;;;;;12.53;6.87;;;20.30;99.90;;;;;;5093321;28;20101;-76
2022/06/18 00:32:47;;;;;;;10.70;7.00;;;20.30;99.90;;;;;;5074725;28;20052;-77
2022/06/18 00:35:15;;;;;;;12.33;7.20;;;20.30;99.90;;;;;;5093117;28;20071;-77
2022/06/18 00:37:42;;;;;;;11.13;7.20;;;20.30;99.90;;;;;;5093107;28;20055;-77
2022/06/18 00:40:11;;;;;;;11.20;6.97;;;20.30;99.90;;;;;;5074979;28;20052;-77
2022/06/18 00:42:39;;;;;;;12.20;7.33;;;20.30;99.90;;;;;;5092734;28;20048;-76
2022/06/18 00:45:06;;;;;;;11.10;6.87;;;20.30;99.90;;;;;;5092730;28;20054;-76
2022/06/18 00:47:58;;;;;;;9.70;7.40;;;20.20;99.90;;;;;;5092994;28;20055;-77
2022/06/18 00:50:49;;;;;;;8.33;6.63;;;20.20;99.90;;;;;;5093027;28;20051;-77
2022/06/18 00:53:42;;;;;;;11.80;7.50;;;20.10;99.90;;;;;;5093216;28;20066;-77
2022/06/18 00:56:31;;;;;;;11.73;8.03;;;20.10;99.90;;;;;;5092998;28;20899;-77
2022/06/18 00:59:02;;;;;;;14.17;7.60;;;20.10;99.90;;;;;;5092671;28;20090;-77
2022/06/18 01:01:35;;;;;;;12.23;7.23;;;20.10;99.90;;;;;;5093017;28;20047;-76
2022/06/18 01:04:19;;;;;;;12.33;7.67;;;20.00;99.90;;;;;;5074580;28;20048;-77
2022/06/18 01:06:45;;;;;;;12.60;7.63;;;20.00;99.90;;;;;;5092892;28;20472;-76
2022/06/18 01:09:15;;;;;;;10.97;8.00;;;20.00;99.90;;;;;;5074677;28;20040;-77
2022/06/18 01:11:45;;;;;;;10.67;8.20;;;20.00;99.90;;;;;;5074918;28;20058;-77
2022/06/18 01:14:14;;;;;;;10.97;7.67;;;19.90;99.90;;;;;;5092483;28;20044;-77
2022/06/18 01:16:40;;;;;;;14.17;8.40;;;19.80;99.90;;;;;;5092676;28;20044;-77
2022/06/18 01:19:09;;;;;;;12.00;8.43;;;19.90;99.90;;;;;;5092352;28;20047;-77
2022/06/18 01:22:03;;;;;;;10.23;7.23;;;19.90;99.90;;;;;;5092618;28;20094;-77
2022/06/18 01:24:40;;;;;;;12.03;7.93;;;19.90;99.90;;;;;;5092666;28;20048;-77
2022/06/18 01:27:09;;;;;;;13.07;8.33;;;19.80;99.90;;;;;;5092304;28;20524;-77
2022/06/18 01:29:36;;;;;;;13.53;9.13;;;19.80;99.90;;;;;;5092827;28;20051;-77
2022/06/18 01:32:05;;;;;;;13.87;9.03;;;19.80;99.90;;;;;;5092325;28;20169;-77
2022/06/18 01:34:32;;;;;;;10.73;8.50;;;19.80;99.90;;;;;;5074697;28;20154;-77
2022/06/18 01:37:00;;;;;;;11.10;8.40;;;19.80;99.90;;;;;;5095374;28;20047;-77
2022/06/18 01:39:31;;;;;;;12.17;8.27;;;19.80;99.90;;;;;;5096421;28;20052;-77
2022/06/18 01:42:26;;;;;;;15.17;7.90;;;19.80;99.90;;;;;;5077513;28;20052;-77
2022/06/18 01:45:00;;;;;;;10.77;7.57;;;19.80;99.90;;;;;;5093004;28;20052;-76
2022/06/18 01:47:46;;;;;;;11.23;8.00;;;19.70;99.90;;;;;;5096093;28;20054;-77
2022/06/18 01:50:39;;;;;;;11.73;7.50;;;19.70;99.90;;;;;;5095835;28;20063;-77
2022/06/18 01:53:26;;;;;;;11.83;7.63;;;19.70;99.90;;;;;;5095756;28;20047;-77
2022/06/18 01:56:04;;;;;;;14.90;7.53;;;19.70;99.90;;;;;;5095946;28;20048;-77
2022/06/18 01:58:40;;;;;;;13.60;8.10;;;19.60;99.90;;;;;;5095932;28;20079;-77
2022/06/18 02:01:12;;;;;;;12.77;9.03;;;19.50;99.90;;;;;;5095563;28;20044;-77
2022/06/18 02:03:38;;;;;;;14.07;9.60;;;19.50;99.90;;;;;;5095898;28;20067;-76
2022/06/18 02:06:05;;;;;;;15.17;9.43;;;19.50;99.90;;;;;;5095422;28;20556;-77
2022/06/18 02:08:31;;;;;;;11.60;8.03;;;19.50;99.90;;;;;;5095654;28;20044;-77
2022/06/18 02:11:01;;;;;;;14.53;9.20;;;19.40;99.90;;;;;;5077374;28;20058;-78
2022/06/18 02:13:37;;;;;;;19.97;10.57;;;19.40;99.90;;;;;;5095801;28;20395;-77
2022/06/18 02:16:08;;;;;;;18.10;10.90;;;19.40;99.90;;;;;;5095349;28;20094;-77
2022/06/18 02:18:34;;;;;;;17.97;9.17;;;19.30;99.90;;;;;;5095783;28;20055;-76
2022/06/18 02:21:05;;;;;;;19.33;9.77;;;19.40;99.90;;;;;;5077115;28;20070;-76
2022/06/18 02:23:31;;;;;;;17.87;10.03;;;19.50;99.90;;;;;;5095660;28;20127;-76
2022/06/18 02:25:57;;;;;;;22.70;10.20;;;19.40;99.90;;;;;;5095341;28;20098;-77
2022/06/18 02:28:42;;;;;;;19.87;10.57;;;;;;;;;;5095318;28;20040;-77
2022/06/18 02:31:14;;;;;;;15.73;10.30;;;19.40;99.90;;;;;;5077217;28;20411;-77
2022/06/18 02:33:43;;;;;;;19.50;10.63;;;;;;;;;;5061008;28;20063;-77
2022/06/18 02:36:28;;;;;;;21.57;10.83;;;19.20;99.90;;;;;;5077102;28;20047;-77
2022/06/18 02:39:17;;;;;;;21.30;12.20;;;19.20;99.90;;;;;;5095129;28;20044;-76
2022/06/18 02:41:44;;;;;;;16.67;11.23;;;19.20;99.90;;;;;;5094891;28;20059;-77
2022/06/18 02:44:11;;;;;;;15.67;11.07;;;19.10;99.90;;;;;;5094320;28;20500;-76
2022/06/18 02:46:38;;;;;;;18.83;12.47;;;19.10;99.90;;;;;;5094779;28;20044;-76
2022/06/18 02:49:06;;;;;;;23.23;12.40;;;19.10;99.90;;;;;;5094740;28;20051;-77
2022/06/18 02:51:34;;;;;;;18.63;11.73;;;19.00;99.90;;;;;;5094812;28;20048;-77
2022/06/18 02:54:00;;;;;;;23.13;11.97;;;19.00;99.90;;;;;;5094860;28;20075;-77
2022/06/18 02:56:26;;;;;;;22.33;12.80;;;19.00;99.90;;;;;;5094459;28;20067;-77
2022/06/18 02:58:52;;;;;;;19.20;12.30;;;19.00;99.90;;;;;;5094687;28;20488;-78
2022/06/18 03:01:21;;;;;;;19.40;13.40;;;18.90;99.90;;;;;;5094637;28;20472;-77
2022/06/18 03:03:50;;;;;;;20.23;13.37;;;18.90;99.90;;;;;;5094537;28;20040;-77
2022/06/18 03:06:18;;;;;;;18.63;12.37;;;18.90;99.90;;;;;;5094319;28;20094;-77
2022/06/18 03:08:46;;;;;;;20.97;12.80;;;;;;;;;;5094520;28;20043;-77
2022/06/18 03:13:57;;;;;;;17.77;12.00;;;18.80;99.90;;;;;;5094706;28;20076;-77
2022/06/18 03:16:23;;;;;;;21.37;13.97;;;18.80;99.90;;;;;;5094126;28;20432;-77
2022/06/18 03:18:52;;;;;;;19.43;13.37;;;18.80;99.90;;;;;;5076608;28;20504;-77
2022/06/18 03:21:38;;;;;;;19.37;12.50;;;18.80;99.90;;;;;;5094137;28;20048;-77
2022/06/18 03:24:05;;;;;;;22.43;12.50;;;18.80;99.90;;;;;;5076309;28;20044;-77
2022/06/18 03:26:32;;;;;;;21.47;13.70;;;18.80;99.90;;;;;;5094227;28;20043;-78
2022/06/18 03:28:58;;;;;;;20.20;12.93;;;18.80;99.90;;;;;;5094120;28;20048;-78
2022/06/18 03:31:24;;;;;;;26.10;15.37;;;18.80;99.90;;;;;;5093811;28;20040;-77
2022/06/18 03:33:50;;;;;;;22.23;13.60;;;;;;;;;;5094260;28;20189;-77
2022/06/18 03:36:18;;;;;;;21.20;13.03;;;18.70;99.90;;;;;;5093558;28;20135;-78
2022/06/18 03:38:45;;;;;;;25.30;13.70;;;18.80;99.90;;;;;;5094008;28;20044;-78
2022/06/18 03:41:12;;;;;;;25.77;15.87;;;18.80;99.90;;;;;;5093439;28;20062;-77
2022/06/18 03:43:40;;;;;;;20.87;13.57;;;18.70;99.90;;;;;;5093977;28;20044;-77
2022/06/18 03:46:12;;;;;;;20.97;14.00;;;18.80;99.90;;;;;;5075746;28;20059;-77
2022/06/18 03:48:50;;;;;;;24.87;14.77;;;18.70;99.90;;;;;;5094108;28;20036;-77
2022/06/18 03:51:17;;;;;;;22.27;15.50;;;18.70;99.90;;;;;;5093542;28;20105;-77
2022/06/18 03:53:43;;;;;;;22.87;14.43;;;18.70;99.90;;;;;;5093663;28;20202;-77
2022/06/18 03:56:14;;;;;;;27.83;14.60;;;18.70;99.90;;;;;;5075698;28;20139;-78
2022/06/18 03:58:40;;;;;;;21.73;14.17;;;18.70;99.90;;;;;;5093145;28;20047;-77
2022/06/18 04:01:06;;;;;;;22.50;14.93;;;18.70;99.90;;;;;;5093235;28;20518;-77
2022/06/18 04:03:32;;;;;;;25.57;14.87;;;18.70;99.90;;;;;;5075130;28;20039;-77
2022/06/18 04:05:58;;;;;;;28.93;14.40;;;18.70;99.90;;;;;;5093424;28;20055;-77
2022/06/18 04:08:23;;;;;;;25.10;14.27;;;18.70;99.90;;;;;;5093198;28;20131;-77
2022/06/18 04:10:49;;;;;;;21.30;14.33;;;18.70;99.90;;;;;;5093360;28;20384;-77
2022/06/18 04:13:15;;;;;;;22.70;15.37;;;18.80;99.90;;;;;;5093086;28;20051;-77
2022/06/18 04:15:42;;;;;;;24.53;15.10;;;18.80;99.90;;;;;;5093413;28;20476;-77
2022/06/18 04:18:09;;;;;;;25.93;15.27;;;18.80;99.90;;;;;;5093294;28;20077;-77
2022/06/18 04:20:36;;;;;;;24.00;15.23;;;18.80;99.90;;;;;;5093032;28;20055;-77
2022/06/18 04:23:03;;;;;;;24.37;14.77;;;18.80;99.90;;;;;;5093090;28;20088;-77
2022/06/18 04:25:30;;;;;;;28.30;15.43;;;18.90;99.90;;;;;;5075127;28;20417;-77
2022/06/18 04:27:58;;;;;;;29.27;15.63;;;18.90;99.90;;;;;;5093129;28;20048;-77
2022/06/18 04:30:27;;;;;;;25.63;13.97;;;18.90;99.90;;;;;;5092845;28;20130;-77
2022/06/18 04:32:54;;;;;;;25.47;15.30;;;18.90;99.90;;;;;;5093083;28;20054;-77
2022/06/18 04:35:21;;;;;;;21.70;13.87;;;19.00;99.90;;;;;;5092805;28;20131;-77
2022/06/18 04:37:48;;;;;;;25.47;14.87;;;19.00;99.90;;;;;;5093095;28;20540;-77
2022/06/18 04:40:21;;;;;;;27.93;13.83;;;19.10;99.90;;;;;;5074975;28;20058;-79
2022/06/18 04:42:47;;;;;;;27.20;14.70;;;19.10;99.90;;;;;;5092686;28;20400;-77
2022/06/18 04:45:14;;;;;;;21.53;13.57;;;19.20;99.90;;;;;;5093117;28;20040;-77
2022/06/18 04:47:40;;;;;;;24.23;14.23;;;19.20;99.90;;;;;;5092825;28;20127;-77
2022/06/18 04:50:14;;;;;;;28.00;13.80;;;19.30;99.90;;;;;;5092901;28;20051;-77
2022/06/18 04:52:39;;;;;;;28.60;15.50;;;19.30;99.90;;;;;;5074956;28;20109;-78
2022/06/18 04:55:05;;;;;;;25.57;15.20;;;19.40;99.90;;;;;;5092958;28;20048;-77
2022/06/18 04:57:31;;;;;;;24.73;16.07;;;19.40;99.90;;;;;;5092494;28;20047;-77
2022/06/18 04:59:57;;;;;;;27.70;14.87;;;19.50;99.90;;;;;;5092924;28;20083;-78
2022/06/18 05:02:25;;;;;;;27.27;14.43;;;19.60;99.90;;;;;;5092630;28;20388;-78
2022/06/18 05:04:53;;;;;;;26.33;13.93;;;19.70;99.90;;;;;;5092928;28;20044;-78
2022/06/18 05:07:18;;;;;;;23.50;13.43;;;19.70;99.90;;;;;;5092498;28;20539;-78
2022/06/18 05:09:44;;;;;;;25.17;13.10;;;19.80;99.90;;;;;;5074952;28;20132;-78
2022/06/18 05:12:12;;;;;;;26.40;13.53;;;19.90;99.90;;;;;;5096657;28;20508;-78
2022/06/18 05:14:38;;;;;;;23.47;13.40;;;20.10;99.90;;;;;;5096567;28;20129;-78
2022/06/18 05:17:06;;;;;;;23.17;13.20;;;20.10;99.90;;;;;;5096915;28;20048;-78
2022/06/18 05:19:33;;;;;;;21.47;13.00;;;20.20;99.90;;;;;;5096354;28;20070;-78
2022/06/18 05:21:59;;;;;;;22.27;12.17;;;20.20;99.90;;;;;;5096497;28;20119;-78
2022/06/18 05:24:26;;;;;;;19.30;12.40;;;20.30;99.90;;;;;;5078360;28;20044;-78
2022/06/18 05:26:56;;;;;;;20.70;12.17;;;20.40;99.90;;;;;;5078145;28;20594;-78
2022/06/18 05:29:22;;;;;;;25.07;12.43;;;20.50;99.90;;;;;;5096241;28;20084;-78
2022/06/18 05:31:47;;;;;;;22.97;13.20;;;20.60;99.90;;;;;;5096429;28;20052;-76
2022/06/18 05:34:14;;;;;;;20.03;11.57;;;20.80;99.90;;;;;;5096349;28;20043;-76
2022/06/18 05:36:40;;;;;;;19.00;12.07;;;20.90;99.90;;;;;;5096054;28;20111;-76
2022/06/18 05:39:08;;;;;;;20.80;11.57;;;21.00;99.90;;;;;;5078446;28;20509;-76
2022/06/18 05:41:36;;;;;;;22.10;11.70;;;21.20;99.90;;;;;;5068799;28;20068;-76
2022/06/18 05:44:03;;;;;;;21.97;12.03;;;21.30;99.90;;;;;;5055979;28;20049;-75
2022/06/18 05:46:29;;;;;;;21.13;11.30;;;21.50;99.90;;;;;;5055590;28;20049;-76
2022/06/18 05:48:54;;;;;;;25.97;10.83;;;21.70;99.90;;;;;;5055873;28;20048;-76
2022/06/18 05:51:20;;;;;;;20.63;10.23;;;21.90;99.90;;;;;;5055797;28;20493;-76
2022/06/18 05:53:46;;;;;;;21.53;10.13;;;22.90;99.90;;;;;;5055384;28;20037;-76
2022/06/18 05:56:12;;;;;;;17.43;8.57;;;;;;;;;;5054681;28;20128;-76
2022/06/18 05:58:38;;;;;;;16.90;9.07;;;;;;;;;;5054185;28;20114;-78
2022/06/18 06:01:05;;;;;;;15.57;7.67;;;;;;;;;;5055741;28;20132;-76
2022/06/18 06:03:30;;;;;;;17.77;8.83;;;24.40;97.90;;;;;;5054840;28;20512;-76
2022/06/18 06:05:56;;;;;;;17.47;8.67;;;24.50;99.90;;;;;;5055138;28;20044;-76
2022/06/18 06:08:22;;;;;;;17.90;8.13;;;24.50;99.90;;;;;;5055450;28;20052;-77
2022/06/18 06:13:39;;;;;;;12.80;6.40;;;24.30;99.70;;;;;;5038698;28;20056;-77
2022/06/18 06:16:06;;;;;;;15.33;7.27;;;;;;;;;;5054163;28;20060;-76
2022/06/18 06:18:32;;;;;;;16.37;7.73;;;24.90;99.90;;;;;;5055019;28;20489;-77
2022/06/18 06:21:00;;;;;;;15.63;7.20;;;;;;;;;;5053790;28;20052;-76
2022/06/18 06:23:26;;;;;;;16.83;6.97;;;;;;;;;;5055100;28;20053;-77
2022/06/18 06:25:52;;;;;;;15.90;6.87;;;;;;;;;;5055127;28;20052;-76
2022/06/18 06:28:19;;;;;;;16.00;6.50;;;;;;;;;;5055281;28;20419;-77
2022/06/18 06:30:45;;;;;;;12.57;5.30;;;28.00;93.90;;;;;;5054766;28;20041;-76
2022/06/18 06:33:11;;;;;;;20.40;6.13;;;;;;;;;;5054976;28;20037;-77
2022/06/18 06:35:38;;;;;;;15.03;5.67;;;;;;;;;;5037036;28;20084;-76
2022/06/18 06:38:04;;;;;;;12.63;5.73;;;;;;;;;;5054907;28;20041;-76
2022/06/18 06:40:31;;;;;;;15.80;5.53;;;;;;;;;;5054625;28;20052;-77
2022/06/18 06:42:57;;;;;;;15.53;5.83;;;;;;;;;;5088751;28;20135;-76
2022/06/18 06:45:25;;;;;;;11.52;5.20;;;;;;;;;;5095129;28;20044;-76
2022/06/18 06:47:52;;;;;;;16.70;5.70;;;;;;;;;;5094682;28;20048;-76
2022/06/18 06:50:19;;;;;;;14.45;6.10;;;;;;;;;;5094992;28;20048;-76
2022/06/18 06:52:45;;;;;;;13.68;5.95;;;;;;;;;;5094536;28;20040;-77
2022/06/18 06:58:08;;;;;;;12.38;5.53;;;;;;;;;;5094961;28;20048;-75
2022/06/18 07:00:38;;;;;;;14.63;5.60;;;;;;;;;;5094367;28;20472;-76
2022/06/18 07:03:04;;;;;;;11.93;5.03;;;;;;;;;;5094763;28;20046;-75
2022/06/18 07:05:30;;;;;;;14.43;5.70;;;32.10;88.70;;;;;;5076827;28;20044;-75
2022/06/18 07:07:56;;;;;;;15.52;5.10;;;;;;;;;;5094351;28;20048;-75
2022/06/18 07:10:21;;;;;;;13.95;6.20;;;32.60;68.20;;;;;;5094641;28;20047;-75
2022/06/18 07:12:47;;;;;;;13.15;5.40;;;;;;;;;;5094217;28;20500;-74
2022/06/18 07:15:13;;;;;;;9.15;4.70;;;;;;;;;;5094349;28;20480;-75
2022/06/18 07:17:40;;;;;;;10.13;5.00;;;32.90;81.60;;;;;;5076321;28;20059;-75
2022/06/18 07:20:09;;;;;;;12.32;3.85;;;33.10;49.80;;;;;;5076585;28;20123;-75
2022/06/18 07:22:36;;;;;;;6.22;3.13;;;;;;;;;;5093987;28;20394;-75
2022/06/18 07:25:01;;;;;;;7.95;3.50;;;32.90;51.80;;;;;;5094241;28;20117;-75
2022/06/18 07:27:30;;;;;;;6.22;2.83;;;;;;;;;;5094172;28;20484;-75
2022/06/18 07:29:57;;;;;;;10.48;3.42;;;32.70;45.50;;;;;;5093837;28;20052;-75
2022/06/18 07:32:23;;;;;;;8.27;3.05;;;;;;;;;;5076028;28;20077;-75
2022/06/18 07:34:49;;;;;;;7.90;3.20;;;;;;;;;;5093186;28;20052;-74
2022/06/18 07:37:15;;;;;;;7.15;3.30;;;;;;;;;;5093945;28;20052;-74
2022/06/18 07:39:41;;;;;;;7.07;2.95;;;32.50;85.40;;;;;;5093315;28;20496;-75
2022/06/18 07:42:07;;;;;;;4.88;2.60;;;32.80;47.60;;;;;;5093787;28;20108;-75
2022/06/18 07:44:33;;;;;;;7.32;2.97;;;33.10;54.00;;;;;;5075489;28;20404;-75
2022/06/18 07:47:01;;;;;;;5.63;2.30;;;33.30;56.10;;;;;;5093525;28;20048;-75
2022/06/18 07:49:27;;;;;;;3.85;1.85;;;;;;;;;;5093840;28;20395;-74
2022/06/18 07:51:53;;;;;;;7.28;2.00;;;34.10;43.60;;;;;;5075460;28;20044;-75
2022/06/18 07:54:20;;;;;;;4.75;1.88;;;34.20;44.60;;;;;;5093596;28;20051;-75
2022/06/18 07:56:46;;;;;;;3.10;1.40;;;;;;;;;;5075320;28;20134;-75
2022/06/18 07:59:12;;;;;;;3.63;1.80;;;;;;;;;;5093610;28;20047;-79
2022/06/18 08:01:39;;;;;;;5.20;1.65;;;;;;;;;;5093473;28;20047;-75
2022/06/18 08:04:08;;;;;;;5.13;1.73;;;;;;;;;;5093482;28;20122;-74
2022/06/18 08:06:34;;;;;;;3.85;1.83;;;;;;;;;;5093431;28;20083;-74
2022/06/18 08:09:00;;;;;;;4.05;1.83;;;;;;;;;;5093123;28;20048;-74
2022/06/18 08:11:29;;;;;;;3.35;1.60;;;;;;;;;;5093398;28;20072;-75
2022/06/18 08:13:56;;;;;;;4.68;1.90;;;;;;;;;;5093366;28;20488;-74
2022/06/18 08:16:22;;;;;;;4.47;2.10;;;;;;;;;;5093320;28;20044;-74
2022/06/18 08:18:48;;;;;;;5.10;2.05;;;;;;;;;;5093177;28;20066;-74
2022/06/18 08:21:35;;;;;;;4.63;2.05;;;;;;;;;;5093429;28;20048;-74
2022/06/18 08:24:06;;;;;;;4.57;1.70;;;;;;;;;;5092985;28;20040;-74
2022/06/18 08:26:33;;;;;;;3.60;1.70;;;34.00;43.00;;;;;;5093350;28;20044;-74
2022/06/18 08:29:02;;;;;;;6.35;2.40;;;33.40;44.10;;;;;;5092749;28;20478;-73
2022/06/18 08:31:28;;;;;;;4.70;2.22;;;33.30;45.00;;;;;;5093211;28;20040;-74
2022/06/18 08:33:55;;;;;;;3.72;1.70;;;33.40;45.10;;;;;;5092915;28;20083;-74
2022/06/18 08:36:20;;;;;;;5.10;2.28;;;33.40;45.10;;;;;;5093219;28;20461;-74
2022/06/18 08:38:48;;;;;;;3.88;1.90;;;33.50;44.90;;;;;;5093061;28;20046;-75
2022/06/18 08:41:35;;;;;;;7.85;2.95;;;33.30;45.00;;;;;;5093178;28;20405;-74
2022/06/18 08:44:22;;;;;;;6.53;2.58;;;33.40;45.50;;;;;;5093224;28;20048;-74
2022/06/18 08:47:29;;;;;;;6.32;2.55;;;33.00;44.10;;;;;;5099539;28;20055;-73
2022/06/18 08:50:15;;;;;;;4.15;1.90;;;32.80;45.60;;;;;;5064982;28;20058;-74
2022/06/18 08:53:11;;;;;;;5.38;2.13;;;32.70;45.90;;;;;;5100019;28;20047;-74
2022/06/18 08:55:49;;;;;;;3.85;1.90;;;;;;;;;;5099739;28;20052;-74
2022/06/18 08:58:24;;;;;;;4.57;2.13;;;31.30;47.30;;;;;;5099616;28;20069;-74
2022/06/18 09:01:05;;;;;;;4.97;2.15;;;31.20;47.80;;;;;;5099455;28;20056;-74
2022/06/18 09:03:56;;;;;;;5.18;2.17;;;30.40;52.30;;;;;;5099498;28;20090;-74
2022/06/18 09:06:39;;;;;;;5.10;2.17;;;30.30;53.40;;;;;;5099752;28;20047;-74
2022/06/18 09:09:23;;;;;;;4.15;1.90;;;30.10;51.30;;;;;;5099375;28;20040;-74
2022/06/18 09:11:52;;;;;;;3.53;1.83;;;;;;;;;;5099325;28;20044;-74
2022/06/18 09:14:38;;;;;;;6.10;1.95;;;29.40;68.90;;;;;;5099477;28;20051;-74
2022/06/18 09:17:06;;;;;;;5.70;2.10;;;;;;;;;;5099249;28;20050;-74
2022/06/18 09:19:34;;;;;;;4.57;1.95;;;28.90;83.20;;;;;;5099375;28;20502;-74
2022/06/18 09:22:02;;;;;;;5.22;2.13;;;;;;;;;;5081376;28;20044;-74
2022/06/18 09:24:33;;;;;;;3.80;1.92;;;;;;;;;;5081549;28;20113;-72
2022/06/18 09:27:05;;;;;;;3.90;1.52;;;;;;;;;;5099154;28;20147;-73
2022/06/18 09:29:49;;;;;;;5.00;1.77;;;;;;;;;;5099351;28;20051;-73
2022/06/18 09:32:18;;;;;;;4.63;1.63;;;;;;;;;;5099360;28;20040;-74
2022/06/18 09:34:50;;;;;;;4.50;1.60;;;;;;;;;;5104397;27;20051;-73
2022/06/18 09:37:26;;;;;;;3.60;1.40;;;;;;;;;;5091391;27;20082;-76
2022/06/18 09:39:57;;;;;;;4.10;1.42;;;27.80;56.90;;;;;;5102271;28;20059;-73
2022/06/18 09:42:34;;;;;;;4.85;1.50;;;27.60;58.70;;;;;;5100781;28;20499;-73
2022/06/18 09:45:21;;;;;;;4.00;1.52;;;27.60;59.40;;;;;;5119253;28;20051;-73
2022/06/18 09:47:49;;;;;;;6.35;2.17;;;27.60;59.50;;;;;;5119395;28;20051;-74
2022/06/18 09:50:34;;;;;;;5.50;1.60;;;;;;;;;;5119386;28;20039;-73
2022/06/18 09:53:04;;;;;;;6.25;1.60;;;;;;;;;;5119203;28;20100;-74
2022/06/18 09:55:40;;;;;;;5.72;1.98;;;;;;;;;;5118720;28;20464;-74
2022/06/18 09:58:08;;;;;;;10.75;2.35;;;;;;;;;;5097753;28;20117;-74
2022/06/18 10:00:35;;;;;;;5.70;1.58;;;;;;;;;;5098097;28;20051;-72
2022/06/18 10:06:52;;;;;;;6.38;2.15;;;;;;;;;;5115875;28;20051;-73
2022/06/18 10:08:49;;;;;;;5.72;1.75;;;;;;;;;;5116217;28;20089;-73
2022/06/18 10:11:15;;;;;;;6.25;1.80;;;;;;;;;;5115801;28;20046;-74
2022/06/18 10:13:51;;;;;;;6.13;1.50;;;27.10;64.30;;;;;;5116019;28;20040;-74
2022/06/18 10:16:47;;;;;;;3.70;1.55;;;27.00;66.20;;;;;;5115740;28;20051;-73
2022/06/18 10:19:23;;;;;;;5.65;1.85;;;;;;;;;;5077275;28;20174;-73
2022/06/18 10:21:58;;;;;;;6.03;2.00;;;;;;;;;;5115905;28;20050;-73
2022/06/18 10:24:49;;;;;;;3.80;1.70;;;26.50;82.00;;;;;;5115681;28;20039;-74
2022/06/18 10:27:30;;;;;;;4.30;1.67;;;;;;;;;;5097387;28;20058;-73
2022/06/18 10:30:17;;;;;;;3.67;1.57;;;;;;;;;;5097581;28;20054;-74
2022/06/18 10:32:54;;;;;;;3.97;1.60;;;25.90;70.70;;;;;;5073956;28;20044;-74
2022/06/18 10:35:40;;;;;;;4.67;1.63;;;25.60;74.70;;;;;;5097437;28;20051;-73
2022/06/18 10:38:44;;;;;;;4.37;1.57;;;25.80;75.30;;;;;;5115287;28;20075;-73
2022/06/18 10:41:57;;;;;;;6.13;1.90;;;26.00;74.80;;;;;;5086382;28;20434;-73
2022/06/18 10:44:42;;;;;;;4.20;1.50;;;26.00;73.00;;;;;;5032495;28;20075;-74
2022/06/18 10:47:12;;;;;;;6.50;1.33;;;26.10;73.10;;;;;;5032234;28;20049;-74
2022/06/18 10:49:38;;;;;;;4.43;1.50;;;26.10;74.60;;;;;;5089722;28;20095;-73
2022/06/18 10:52:04;;;;;;;4.37;1.40;;;26.20;74.30;;;;;;5114892;28;20086;-72
2022/06/18 10:54:32;;;;;;;2.83;1.27;;;;;;;;;;5115218;28;20044;-72
2022/06/18 10:56:58;;;;;;;4.90;1.50;;;;;;;;;;5114842;28;20479;-78
2022/06/18 10:59:42;;;;;;;5.07;1.60;;;;;;;;;;5115068;28;20044;-73
2022/06/18 11:02:09;;;;;;;4.28;1.70;;;;;;;;;;5114740;28;20130;-73
2022/06/18 11:04:36;;;;;;;4.90;1.83;;;26.20;99.40;;;;;;5097054;28;20051;-72
2022/06/18 11:07:12;;;;;;;6.13;1.50;;;26.20;73.50;;;;;;5114551;28;20055;-73
2022/06/18 11:09:55;;;;;;;5.17;1.70;;;26.10;74.50;;;;;;5095872;28;20044;-71
2022/06/18 11:12:34;;;;;;;3.90;1.40;;;26.20;75.60;;;;;;5114716;28;20157;-73
2022/06/18 11:15:01;;;;;;;3.47;1.60;;;26.10;75.60;;;;;;5114730;28;20090;-69
2022/06/18 11:17:41;;;;;;;5.57;1.90;;;26.00;75.00;;;;;;5114914;28;20131;-68
2022/06/18 11:20:17;;;;;;;4.37;1.80;;;25.90;76.60;;;;;;5114722;28;20051;-68
2022/06/18 11:22:44;;;;;;;5.53;1.70;;;25.80;77.00;;;;;;5096870;28;20048;-68
2022/06/18 11:25:45;;;;;;;5.80;1.57;;;25.80;78.20;;;;;;5114426;28;20052;-68
2022/06/18 11:28:20;;;;;;;7.17;2.00;;;25.90;76.60;;;;;;5114622;28;20459;-68
2022/06/18 11:30:48;;;;;;;5.17;1.77;;;25.80;77.10;;;;;;5114948;28;20055;-68
2022/06/18 11:33:39;;;;;;;5.07;2.00;;;25.60;76.70;;;;;;5096205;28;20042;-68
2022/06/18 11:36:14;;;;;;;4.67;1.67;;;25.60;77.40;;;;;;5104245;28;20450;-68
2022/06/18 11:38:49;;;;;;;4.70;1.77;;;25.60;78.40;;;;;;5114700;28;20086;-67
2022/06/18 11:41:40;;;;;;;5.93;1.90;;;25.60;77.30;;;;;;5113866;28;20049;-67
2022/06/18 11:44:14;;;;;;;6.47;1.90;;;25.60;74.80;;;;;;5112783;28;20127;-74
2022/06/18 11:46:45;;;;;;;3.93;1.73;;;25.70;75.80;;;;;;5114439;28;20040;-73
2022/06/18 11:49:20;;;;;;;4.90;2.10;;;25.80;75.90;;;;;;5113958;28;20122;-73
2022/06/18 11:51:57;;;;;;;;;;;25.80;75.10;;;;;;5114620;28;20051;-72
2022/06/18 11:54:36;;;;;;;4.20;1.93;;;25.60;75.00;;;;;;5113864;28;20027;-73
2022/06/18 11:57:16;;;;;;;6.13;1.40;;;25.40;75.60;;;;;;5096281;28;20083;-71
2022/06/18 12:00:04;;;;;;;5.57;1.40;;;25.40;77.40;;;;;;5114281;28;20044;-71
2022/06/18 12:02:45;;;;;;;5.07;1.77;;;25.40;77.10;;;;;;5113957;28;20092;-69
2022/06/18 12:05:35;;;;;;;4.93;2.03;;;25.50;76.90;;;;;;5113547;28;20044;-69
2022/06/18 12:08:03;;;;;;;4.77;1.73;;;25.50;77.10;;;;;;5113956;28;20092;-71
2022/06/18 12:11:14;;;;;;;6.57;1.60;;;25.40;77.40;;;;;;5113579;28;20066;-69
2022/06/18 12:13:42;;;;;;;6.80;1.67;;;25.40;77.00;;;;;;5095199;28;20200;-76
2022/06/18 12:16:28;;;;;;;7.70;2.77;;;25.30;77.30;;;;;;5113120;28;20487;-69
2022/06/18 12:18:56;;;;;;;9.93;2.30;;;25.40;76.10;;;;;;5113458;28;20047;-69
2022/06/18 12:21:31;;;;;;;5.97;1.73;;;25.30;77.50;;;;;;5113065;28;20496;-73
2022/06/18 12:24:22;;;;;;;9.20;2.20;;;25.50;77.70;;;;;;5113636;28;20062;-71
2022/06/18 12:26:54;;;;;;;7.33;2.23;;;25.40;75.40;;;;;;5113651;28;20051;-70
2022/06/18 12:29:30;;;;;;;6.67;2.20;;;25.30;74.20;;;;;;5113334;28;20509;-72
2022/06/18 12:32:13;;;;;;;5.30;1.87;;;25.30;73.80;;;;;;5113824;28;20128;-71
2022/06/18 12:34:58;;;;;;;6.43;2.03;;;;;;;;;;5095829;28;20103;-71
2022/06/18 12:37:26;;;;;;;;;;;25.00;71.50;;;;;;5113614;28;20043;-71
2022/06/18 12:40:09;;;;;;;10.47;2.30;;;24.80;73.20;;;;;;5113407;28;19927;-71
2022/06/18 12:42:42;;;;;;;8.57;2.33;;;;;;;;;;5112920;28;20056;-72
2022/06/18 12:45:11;;;;;;;6.77;1.80;;;;;;;;;;5113399;28;20061;-71
2022/06/18 12:47:43;;;;;;;7.90;1.97;;;;;;;;;;5113071;28;20568;-71
2022/06/18 12:50:09;;;;;;;7.13;2.63;;;;;;;;;;5113356;28;20498;-73
2022/06/18 12:52:53;;;;;;;13.03;2.57;;;24.50;73.40;;;;;;5113082;28;20112;-69
2022/06/18 12:55:29;;;;;;;8.30;1.97;;;24.40;73.90;;;;;;5095336;28;20398;-70
2022/06/18 12:58:09;;;;;;;8.63;1.97;;;24.20;74.70;;;;;;5113381;28;20139;-69
2022/06/18 13:00:34;;;;;;;15.00;3.60;;;24.20;78.30;;;;;;5113059;28;20471;-74
2022/06/18 13:03:26;;;;;;;9.03;2.50;;;24.00;76.70;;;;;;5095029;28;20051;-75
2022/06/18 13:05:59;;;;;;;9.97;2.20;;;24.00;76.70;;;;;;5113451;28;20039;-72
2022/06/18 13:08:34;;;;;;;8.50;2.87;;;24.00;77.40;;;;;;5095082;28;20097;-72
2022/06/18 13:11:18;;;;;;;;;;;23.90;77.80;;;;;;5113840;28;20059;-73
2022/06/18 13:14:12;;;;;;;8.80;2.30;;;23.70;78.80;;;;;;5094901;28;20015;-74
2022/06/18 13:17:00;;;;;;;9.47;2.40;;;23.80;79.40;;;;;;5112885;28;20464;-72
2022/06/18 13:19:47;;;;;;;8.80;2.30;;;23.80;77.90;;;;;;5112872;28;20094;-74
2022/06/18 13:22:13;;;;;;;10.70;3.13;;;23.80;80.00;;;;;;5113157;28;20043;-73
2022/06/18 13:30:40;;;;;;;11.00;2.97;;;23.60;78.60;;;;;;5112625;28;20479;-74
2022/06/18 13:33:30;;;;;;;8.97;2.70;;;23.50;79.10;;;;;;5116650;28;20101;-73
2022/06/18 13:36:14;;;;;;;12.43;2.70;;;23.30;81.00;;;;;;5116853;28;20090;-74
2022/06/18 13:39:10;;;;;;;11.00;2.65;;;23.30;81.80;;;;;;5116430;28;20047;-74
2022/06/18 13:41:45;;;;;;;10.80;2.43;;;23.30;84.00;;;;;;5116286;28;20090;-74
2022/06/18 13:44:31;;;;;;;16.23;3.63;;;23.30;82.00;;;;;;5098432;28;20058;-73
2022/06/18 13:47:30;;;;;;;9.93;2.80;;;23.40;80.80;;;;;;5116703;28;20407;-73
2022/06/18 13:50:04;;;;;;;13.03;3.07;;;23.30;78.70;;;;;;5116542;28;20058;-73